sensor_id;sensor_type;location;lat;lon;timestamp;pressure;altitude;pressure_sealevel;temperature;humidity
42859;BME280;28505;56.970;40.998;2023-07-09T00:00:18;99731.28;;;13.53;100.00
42859;BME280;28505;56.970;40.998;2023-07-09T00:05:42;99738.75;;;13.30;100.00
42859;BME280;28505;56.970;40.998;2023-07-09T00:11:05;99736.84;;;13.40;100.00
42859;BME280;28505;56.970;40.998;2023-07-09T00:16:27;99734.72;;;13.19;100.00
42859;BME280;28505;56.970;40.998;2023-07-09T00:21:50;99736.31;;;13.11;100.00
42859;BME280;28505;56.970;40.998;2023-07-09T00:27:17;99737.56;;;13.14;100.00
42859;BME280;28505;56.970;40.998;2023-07-09T00:32:39;99729.75;;;12.95;100.00
42859;BME280;28505;56.970;40.998;2023-07-09T00:38:05;99736.56;;;12.93;100.00
42859;BME280;28505;56.970;40.998;2023-07-09T00:43:34;99728.75;;;12.82;100.00
42859;BME280;28505;56.970;40.998;2023-07-09T00:49:01;99719.81;;;12.73;100.00
42859;BME280;28505;56.970;40.998;2023-07-09T01:00:00;99721.34;;;12.57;100.00
42859;BME280;28505;56.970;40.998;2023-07-09T01:05:30;99712.94;;;12.67;100.00
42859;BME280;28505;56.970;40.998;2023-07-09T01:10:54;99719.06;;;12.90;100.00
42859;BME280;28505;56.970;40.998;2023-07-09T01:16:18;99705.69;;;12.94;100.00
42859;BME280;28505;56.970;40.998;2023-07-09T01:21:42;99717.81;;;12.96;100.00
42859;BME280;28505;56.970;40.998;2023-07-09T01:27:06;99711.44;;;12.92;100.00
42859;BME280;28505;56.970;40.998;2023-07-09T01:32:29;99710.94;;;12.90;100.00
42859;BME280;28505;56.970;40.998;2023-07-09T01:37:52;99714.47;;;12.99;100.00
42859;BME280;28505;56.970;40.998;2023-07-09T01:43:14;99692.00;;;12.90;100.00
42859;BME280;28505;56.970;40.998;2023-07-09T01:48:36;99707.53;;;13.24;100.00
42859;BME280;28505;56.970;40.998;2023-07-09T01:54:05;99717.25;;;13.34;100.00
42859;BME280;28505;56.970;40.998;2023-07-09T01:59:30;99712.63;;;13.26;100.00
42859;BME280;28505;56.970;40.998;2023-07-09T02:04:56;99709.59;;;13.36;100.00
42859;BME280;28505;56.970;40.998;2023-07-09T02:10:18;99711.38;;;13.32;100.00
42859;BME280;28505;56.970;40.998;2023-07-09T02:15:42;99696.25;;;13.48;100.00
42859;BME280;28505;56.970;40.998;2023-07-09T02:21:06;99694.66;;;13.65;100.00
42859;BME280;28505;56.970;40.998;2023-07-09T02:26:27;99692.41;;;13.84;100.00
42859;BME280;28505;56.970;40.998;2023-07-09T02:31:52;99693.47;;;14.00;100.00
42859;BME280;28505;56.970;40.998;2023-07-09T02:37:16;99682.00;;;13.95;100.00
42859;BME280;28505;56.970;40.998;2023-07-09T02:42:39;99687.22;;;14.09;100.00
42859;BME280;28505;56.970;40.998;2023-07-09T02:48:02;99687.09;;;14.05;100.00
42859;BME280;28505;56.970;40.998;2023-07-09T02:53:30;99686.13;;;14.01;100.00
42859;BME280;28505;56.970;40.998;2023-07-09T02:58:53;99695.00;;;14.27;100.00
42859;BME280;28505;56.970;40.998;2023-07-09T03:04:15;99680.44;;;14.32;100.00
42859;BME280;28505;56.970;40.998;2023-07-09T03:09:38;99691.25;;;14.49;100.00
42859;BME280;28505;56.970;40.998;2023-07-09T03:15:00;99679.16;;;14.38;100.00
42859;BME280;28505;56.970;40.998;2023-07-09T03:20:24;99687.44;;;14.50;100.00
42859;BME280;28505;56.970;40.998;2023-07-09T03:25:47;99682.63;;;14.47;100.00
42859;BME280;28505;56.970;40.998;2023-07-09T03:31:09;99690.41;;;14.66;100.00
42859;BME280;28505;56.970;40.998;2023-07-09T03:36:31;99686.25;;;14.98;100.00
42859;BME280;28505;56.970;40.998;2023-07-09T03:41:53;99685.72;;;15.26;100.00
42859;BME280;28505;56.970;40.998;2023-07-09T03:47:16;99671.81;;;15.49;100.00
42859;BME280;28505;56.970;40.998;2023-07-09T03:52:40;99681.06;;;15.89;100.00
42859;BME280;28505;56.970;40.998;2023-07-09T03:58:05;99682.81;;;16.06;100.00
42859;BME280;28505;56.970;40.998;2023-07-09T04:03:28;99683.44;;;16.85;100.00
42859;BME280;28505;56.970;40.998;2023-07-09T04:08:50;99683.66;;;17.17;100.00
42859;BME280;28505;56.970;40.998;2023-07-09T04:14:12;99691.97;;;18.21;100.00
42859;BME280;28505;56.970;40.998;2023-07-09T04:19:34;99684.84;;;18.16;100.00
42859;BME280;28505;56.970;40.998;2023-07-09T04:24:56;99687.78;;;19.06;100.00
42859;BME280;28505;56.970;40.998;2023-07-09T04:30:19;99689.63;;;19.57;100.00
42859;BME280;28505;56.970;40.998;2023-07-09T04:35:41;99684.84;;;19.89;100.00
42859;BME280;28505;56.970;40.998;2023-07-09T04:41:03;99682.91;;;21.12;100.00
42859;BME280;28505;56.970;40.998;2023-07-09T04:46:26;99686.63;;;21.53;100.00
42859;BME280;28505;56.970;40.998;2023-07-09T04:51:48;99680.69;;;21.81;100.00
42859;BME280;28505;56.970;40.998;2023-07-09T04:57:11;99667.72;;;21.78;96.10
42859;BME280;28505;56.970;40.998;2023-07-09T05:02:33;99654.72;;;22.57;100.00
42859;BME280;28505;56.970;40.998;2023-07-09T05:07:55;99657.53;;;22.19;100.00
42859;BME280;28505;56.970;40.998;2023-07-09T05:13:18;99646.28;;;22.90;92.37
42859;BME280;28505;56.970;40.998;2023-07-09T05:18:40;99651.19;;;23.19;95.82
42859;BME280;28505;56.970;40.998;2023-07-09T05:24:03;99640.03;;;23.77;88.15
42859;BME280;28505;56.970;40.998;2023-07-09T05:29:26;99641.50;;;23.60;84.86
42859;BME280;28505;56.970;40.998;2023-07-09T05:34:48;99629.25;;;23.44;71.64
42859;BME280;28505;56.970;40.998;2023-07-09T05:40:11;99623.94;;;24.69;81.75
42859;BME280;28505;56.970;40.998;2023-07-09T05:45:33;99619.06;;;25.93;69.66
42859;BME280;28505;56.970;40.998;2023-07-09T05:50:55;99616.59;;;23.18;76.79
42859;BME280;28505;56.970;40.998;2023-07-09T05:56:18;99623.03;;;25.18;72.71
42859;BME280;28505;56.970;40.998;2023-07-09T06:01:48;99625.09;;;23.96;76.81
42859;BME280;28505;56.970;40.998;2023-07-09T06:07:11;99629.00;;;22.86;86.19
42859;BME280;28505;56.970;40.998;2023-07-09T06:12:34;99611.66;;;22.20;80.93
42859;BME280;28505;56.970;40.998;2023-07-09T06:17:57;99621.63;;;22.42;87.32
42859;BME280;28505;56.970;40.998;2023-07-09T06:23:19;99618.41;;;22.33;74.51
42859;BME280;28505;56.970;40.998;2023-07-09T06:28:41;99630.72;;;22.47;76.60
42859;BME280;28505;56.970;40.998;2023-07-09T06:34:03;99629.38;;;23.79;69.76
42859;BME280;28505;56.970;40.998;2023-07-09T06:39:26;99621.53;;;22.87;83.45
42859;BME280;28505;56.970;40.998;2023-07-09T06:44:47;99619.78;;;25.31;62.04
42859;BME280;28505;56.970;40.998;2023-07-09T06:50:11;99623.88;;;23.72;65.94
42859;BME280;28505;56.970;40.998;2023-07-09T06:55:33;99618.41;;;22.33;69.65
42859;BME280;28505;56.970;40.998;2023-07-09T07:00:56;99619.09;;;23.51;62.40
42859;BME280;28505;56.970;40.998;2023-07-09T07:06:18;99610.06;;;22.71;69.13
42859;BME280;28505;56.970;40.998;2023-07-09T07:11:40;99603.88;;;22.91;56.17
42859;BME280;28505;56.970;40.998;2023-07-09T07:17:02;99610.53;;;23.89;60.13
42859;BME280;28505;56.970;40.998;2023-07-09T07:22:24;99608.16;;;23.76;60.56
42859;BME280;28505;56.970;40.998;2023-07-09T07:27:46;99608.81;;;23.37;63.14
42859;BME280;28505;56.970;40.998;2023-07-09T07:33:09;99613.56;;;23.48;56.99
42859;BME280;28505;56.970;40.998;2023-07-09T07:38:32;99601.00;;;23.54;56.29
42859;BME280;28505;56.970;40.998;2023-07-09T07:43:54;99603.59;;;23.11;62.44
42859;BME280;28505;56.970;40.998;2023-07-09T07:49:16;99610.94;;;24.19;53.33
42859;BME280;28505;56.970;40.998;2023-07-09T07:54:38;99602.28;;;24.21;55.70
42859;BME280;28505;56.970;40.998;2023-07-09T08:00:02;99592.44;;;24.59;55.39
42859;BME280;28505;56.970;40.998;2023-07-09T08:05:32;99591.63;;;24.62;52.63
42859;BME280;28505;56.970;40.998;2023-07-09T08:11:05;99582.91;;;23.46;54.57
42859;BME280;28505;56.970;40.998;2023-07-09T08:16:29;99578.97;;;23.36;54.33
42859;BME280;28505;56.970;40.998;2023-07-09T08:21:51;99585.13;;;23.08;54.94
42859;BME280;28505;56.970;40.998;2023-07-09T08:27:13;99584.44;;;23.25;55.99
42859;BME280;28505;56.970;40.998;2023-07-09T08:32:36;99584.94;;;22.76;57.18
42859;BME280;28505;56.970;40.998;2023-07-09T08:37:58;99573.78;;;23.20;62.18
42859;BME280;28505;56.970;40.998;2023-07-09T08:48:56;99563.31;;;23.90;59.53
42859;BME280;28505;56.970;40.998;2023-07-09T08:54:28;99564.50;;;24.32;60.55
42859;BME280;28505;56.970;40.998;2023-07-09T08:59:57;99560.91;;;23.67;59.76
42859;BME280;28505;56.970;40.998;2023-07-09T09:05:24;99568.06;;;23.90;55.50
42859;BME280;28505;56.970;40.998;2023-07-09T09:10:54;99563.31;;;23.87;57.43
42859;BME280;28505;56.970;40.998;2023-07-09T09:16:39;99565.63;;;23.42;61.29
42859;BME280;28505;56.970;40.998;2023-07-09T09:22:05;99535.81;;;23.94;56.60
42859;BME280;28505;56.970;40.998;2023-07-09T09:27:30;99547.16;;;23.56;61.90
42859;BME280;28505;56.970;40.998;2023-07-09T09:32:58;99543.47;;;22.99;62.36
42859;BME280;28505;56.970;40.998;2023-07-09T09:38:22;99545.16;;;23.35;57.03
42859;BME280;28505;56.970;40.998;2023-07-09T09:43:45;99543.59;;;23.42;61.49
42859;BME280;28505;56.970;40.998;2023-07-09T09:49:09;99547.53;;;23.44;59.28
42859;BME280;28505;56.970;40.998;2023-07-09T09:54:32;99528.34;;;23.87;59.44
42859;BME280;28505;56.970;40.998;2023-07-09T09:59:54;99536.13;;;23.35;62.45
42859;BME280;28505;56.970;40.998;2023-07-09T10:05:21;99517.28;;;23.62;60.41
42859;BME280;28505;56.970;40.998;2023-07-09T10:10:48;99525.94;;;24.25;60.04
42859;BME280;28505;56.970;40.998;2023-07-09T10:16:29;99527.97;;;23.81;59.94
42859;BME280;28505;56.970;40.998;2023-07-09T10:22:05;99519.97;;;24.66;59.53
42859;BME280;28505;56.970;40.998;2023-07-09T10:33:25;99510.22;;;23.97;59.24
42859;BME280;28505;56.970;40.998;2023-07-09T10:39:00;99511.38;;;23.39;56.44
42859;BME280;28505;56.970;40.998;2023-07-09T10:44:31;99505.53;;;23.72;56.63
42859;BME280;28505;56.970;40.998;2023-07-09T10:49:55;99503.53;;;24.12;58.89
42859;BME280;28505;56.970;40.998;2023-07-09T10:56:00;99515.69;;;23.32;56.27
42859;BME280;28505;56.970;40.998;2023-07-09T11:01:14;99496.44;;;23.57;63.66
42859;BME280;28505;56.970;40.998;2023-07-09T11:06:43;99492.56;;;23.87;55.80
42859;BME280;28505;56.970;40.998;2023-07-09T11:12:17;99488.22;;;23.61;53.23
42859;BME280;28505;56.970;40.998;2023-07-09T11:17:44;99489.41;;;23.92;55.44
42859;BME280;28505;56.970;40.998;2023-07-09T11:23:23;99488.94;;;23.19;55.59
42859;BME280;28505;56.970;40.998;2023-07-09T11:28:54;99492.50;;;23.26;59.27
42859;BME280;28505;56.970;40.998;2023-07-09T11:34:19;99494.06;;;23.34;58.62
42859;BME280;28505;56.970;40.998;2023-07-09T11:39:45;99469.34;;;23.88;53.82
42859;BME280;28505;56.970;40.998;2023-07-09T11:45:10;99472.88;;;23.96;56.67
42859;BME280;28505;56.970;40.998;2023-07-09T11:50:46;99468.19;;;23.86;55.59
42859;BME280;28505;56.970;40.998;2023-07-09T11:56:12;99476.41;;;23.50;55.49
42859;BME280;28505;56.970;40.998;2023-07-09T12:01:45;99467.78;;;23.62;57.36
42859;BME280;28505;56.970;40.998;2023-07-09T12:07:05;99463.34;;;24.33;58.05
42859;BME280;28505;56.970;40.998;2023-07-09T12:12:28;99459.53;;;23.91;54.00
42859;BME280;28505;56.970;40.998;2023-07-09T12:18:00;99461.09;;;23.92;55.38
42859;BME280;28505;56.970;40.998;2023-07-09T12:23:31;99449.28;;;23.80;56.51
42859;BME280;28505;56.970;40.998;2023-07-09T12:28:56;99446.16;;;23.82;60.67
42859;BME280;28505;56.970;40.998;2023-07-09T12:34:19;99442.22;;;23.94;55.60
42859;BME280;28505;56.970;40.998;2023-07-09T12:39:42;99440.63;;;23.21;58.11
42859;BME280;28505;56.970;40.998;2023-07-09T12:45:05;99437.13;;;23.42;58.92
42859;BME280;28505;56.970;40.998;2023-07-09T12:50:34;99445.34;;;23.64;58.53
42859;BME280;28505;56.970;40.998;2023-07-09T12:55:58;99438.28;;;23.27;54.16
42859;BME280;28505;56.970;40.998;2023-07-09T13:01:23;99442.22;;;23.33;57.89
42859;BME280;28505;56.970;40.998;2023-07-09T13:06:48;99427.19;;;22.87;55.46
42859;BME280;28505;56.970;40.998;2023-07-09T13:12:12;99430.38;;;23.14;58.87
42859;BME280;28505;56.970;40.998;2023-07-09T13:17:34;99431.88;;;22.87;59.02
42859;BME280;28505;56.970;40.998;2023-07-09T13:23:00;99413.13;;;23.39;63.03
42859;BME280;28505;56.970;40.998;2023-07-09T13:28:24;99411.47;;;22.81;54.79
42859;BME280;28505;56.970;40.998;2023-07-09T13:33:57;99404.34;;;22.65;59.75
42859;BME280;28505;56.970;40.998;2023-07-09T13:39:20;99403.66;;;22.94;60.80
42859;BME280;28505;56.970;40.998;2023-07-09T13:44:49;99391.81;;;22.82;63.11
42859;BME280;28505;56.970;40.998;2023-07-09T13:50:13;99384.75;;;22.81;63.75
42859;BME280;28505;56.970;40.998;2023-07-09T13:55:35;99374.94;;;22.80;58.32
42859;BME280;28505;56.970;40.998;2023-07-09T14:01:09;99398.16;;;23.01;59.70
42859;BME280;28505;56.970;40.998;2023-07-09T14:06:32;99403.22;;;22.91;69.29
42859;BME280;28505;56.970;40.998;2023-07-09T14:11:55;99405.19;;;22.80;57.31
42859;BME280;28505;56.970;40.998;2023-07-09T14:17:17;99395.34;;;22.76;60.30
42859;BME280;28505;56.970;40.998;2023-07-09T14:22:40;99389.44;;;22.63;61.31
42859;BME280;28505;56.970;40.998;2023-07-09T14:28:10;99384.31;;;22.58;58.20
42859;BME280;28505;56.970;40.998;2023-07-09T14:33:32;99373.75;;;22.63;62.83
42859;BME280;28505;56.970;40.998;2023-07-09T14:38:56;99371.63;;;22.17;62.30
42859;BME280;28505;56.970;40.998;2023-07-09T14:44:29;99374.38;;;22.25;61.63
42859;BME280;28505;56.970;40.998;2023-07-09T14:49:51;99378.34;;;22.31;63.24
42859;BME280;28505;56.970;40.998;2023-07-09T14:55:16;99376.72;;;22.19;68.30
42859;BME280;28505;56.970;40.998;2023-07-09T15:00:39;99373.44;;;21.99;72.08
42859;BME280;28505;56.970;40.998;2023-07-09T15:06:03;99373.88;;;22.01;70.92
42859;BME280;28505;56.970;40.998;2023-07-09T15:11:25;99362.81;;;21.90;73.18
42859;BME280;28505;56.970;40.998;2023-07-09T15:16:48;99369.97;;;22.09;67.11
42859;BME280;28505;56.970;40.998;2023-07-09T15:22:24;99350.09;;;22.30;75.66
42859;BME280;28505;56.970;40.998;2023-07-09T15:27:48;99357.41;;;22.05;70.00
42859;BME280;28505;56.970;40.998;2023-07-09T15:33:16;99358.50;;;21.93;81.67
42859;BME280;28505;56.970;40.998;2023-07-09T15:38:39;99348.59;;;21.74;74.27
42859;BME280;28505;56.970;40.998;2023-07-09T15:44:04;99358.31;;;21.61;77.71
42859;BME280;28505;56.970;40.998;2023-07-09T15:49:30;99349.34;;;21.64;79.97
42859;BME280;28505;56.970;40.998;2023-07-09T15:54:51;99324.59;;;21.57;74.27
42859;BME280;28505;56.970;40.998;2023-07-09T16:00:19;99341.09;;;21.64;81.97
42859;BME280;28505;56.970;40.998;2023-07-09T16:05:41;99342.25;;;21.56;79.83
42859;BME280;28505;56.970;40.998;2023-07-09T16:11:22;99344.69;;;21.71;86.01
42859;BME280;28505;56.970;40.998;2023-07-09T16:16:45;99344.50;;;21.43;90.90
42859;BME280;28505;56.970;40.998;2023-07-09T16:22:14;99351.22;;;21.04;100.00
42859;BME280;28505;56.970;40.998;2023-07-09T16:27:38;99345.69;;;20.97;99.87
42859;BME280;28505;56.970;40.998;2023-07-09T16:33:00;99342.38;;;20.77;100.00
42859;BME280;28505;56.970;40.998;2023-07-09T16:38:24;99337.50;;;20.60;100.00
42859;BME280;28505;56.970;40.998;2023-07-09T16:43:46;99332.47;;;20.32;100.00
42859;BME280;28505;56.970;40.998;2023-07-09T16:54:48;99342.66;;;20.01;100.00
42859;BME280;28505;56.970;40.998;2023-07-09T17:00:32;99335.34;;;19.79;100.00
42859;BME280;28505;56.970;40.998;2023-07-09T17:05:56;99328.63;;;19.50;100.00
42859;BME280;28505;56.970;40.998;2023-07-09T17:11:18;99335.75;;;19.31;100.00
42859;BME280;28505;56.970;40.998;2023-07-09T17:16:40;99325.69;;;19.12;100.00
42859;BME280;28505;56.970;40.998;2023-07-09T17:27:42;99327.47;;;18.78;100.00
42859;BME280;28505;56.970;40.998;2023-07-09T17:33:04;99321.97;;;18.75;100.00
42859;BME280;28505;56.970;40.998;2023-07-09T17:38:35;99327.47;;;18.78;100.00
42859;BME280;28505;56.970;40.998;2023-07-09T17:43:57;99317.06;;;18.64;100.00
42859;BME280;28505;56.970;40.998;2023-07-09T17:49:23;99313.34;;;18.53;100.00
42859;BME280;28505;56.970;40.998;2023-07-09T17:54:46;99316.06;;;18.53;100.00
42859;BME280;28505;56.970;40.998;2023-07-09T18:00:22;99316.66;;;18.43;100.00
42859;BME280;28505;56.970;40.998;2023-07-09T18:05:45;99308.03;;;18.41;100.00
42859;BME280;28505;56.970;40.998;2023-07-09T18:11:21;99308.78;;;18.38;100.00
42859;BME280;28505;56.970;40.998;2023-07-09T18:16:44;99305.50;;;18.29;100.00
42859;BME280;28505;56.970;40.998;2023-07-09T18:22:14;99291.09;;;18.09;100.00
42859;BME280;28505;56.970;40.998;2023-07-09T18:27:39;99290.25;;;18.28;100.00
42859;BME280;28505;56.970;40.998;2023-07-09T18:33:05;99285.56;;;17.86;100.00
42859;BME280;28505;56.970;40.998;2023-07-09T18:38:28;99288.13;;;17.98;100.00
42859;BME280;28505;56.970;40.998;2023-07-09T18:43:50;99282.81;;;17.86;100.00
42859;BME280;28505;56.970;40.998;2023-07-09T18:49:13;99286.28;;;17.83;100.00
42859;BME280;28505;56.970;40.998;2023-07-09T18:54:36;99279.34;;;17.69;100.00
42859;BME280;28505;56.970;40.998;2023-07-09T18:59:58;99265.72;;;17.69;100.00
42859;BME280;28505;56.970;40.998;2023-07-09T19:05:21;99257.22;;;17.74;100.00
42859;BME280;28505;56.970;40.998;2023-07-09T19:10:44;99248.78;;;17.60;100.00
42859;BME280;28505;56.970;40.998;2023-07-09T19:16:25;99256.56;;;17.62;100.00
42859;BME280;28505;56.970;40.998;2023-07-09T19:21:50;99259.59;;;17.57;100.00
42859;BME280;28505;56.970;40.998;2023-07-09T19:27:13;99253.50;;;17.63;100.00
42859;BME280;28505;56.970;40.998;2023-07-09T19:32:36;99243.50;;;17.51;100.00
42859;BME280;28505;56.970;40.998;2023-07-09T19:37:59;99239.72;;;17.37;100.00
42859;BME280;28505;56.970;40.998;2023-07-09T19:43:21;99232.97;;;17.30;100.00
42859;BME280;28505;56.970;40.998;2023-07-09T19:48:44;99228.22;;;17.27;100.00
42859;BME280;28505;56.970;40.998;2023-07-09T19:54:14;99232.72;;;17.39;100.00
42859;BME280;28505;56.970;40.998;2023-07-09T19:59:38;99232.25;;;17.34;100.00
42859;BME280;28505;56.970;40.998;2023-07-09T20:05:00;99221.03;;;17.19;100.00
42859;BME280;28505;56.970;40.998;2023-07-09T20:10:23;99217.31;;;17.27;100.00
42859;BME280;28505;56.970;40.998;2023-07-09T20:15:46;99212.91;;;17.23;100.00
42859;BME280;28505;56.970;40.998;2023-07-09T20:21:17;99222.31;;;17.25;100.00
42859;BME280;28505;56.970;40.998;2023-07-09T20:26:43;99211.13;;;17.11;100.00
42859;BME280;28505;56.970;40.998;2023-07-09T20:32:19;99202.59;;;17.13;100.00
42859;BME280;28505;56.970;40.998;2023-07-09T20:37:43;99197.91;;;17.13;100.00
42859;BME280;28505;56.970;40.998;2023-07-09T20:43:17;99203.09;;;17.18;100.00
42859;BME280;28505;56.970;40.998;2023-07-09T20:48:40;99203.91;;;17.03;100.00
42859;BME280;28505;56.970;40.998;2023-07-09T20:54:02;99182.69;;;16.93;100.00
42859;BME280;28505;56.970;40.998;2023-07-09T20:59:26;99184.69;;;17.12;100.00
42859;BME280;28505;56.970;40.998;2023-07-09T21:04:49;99174.63;;;17.16;100.00
42859;BME280;28505;56.970;40.998;2023-07-09T21:10:23;99178.00;;;17.09;100.00
42859;BME280;28505;56.970;40.998;2023-07-09T21:15:56;99179.75;;;17.17;100.00
42859;BME280;28505;56.970;40.998;2023-07-09T21:21:20;99166.84;;;17.14;100.00
42859;BME280;28505;56.970;40.998;2023-07-09T21:26:42;99156.31;;;16.97;100.00
42859;BME280;28505;56.970;40.998;2023-07-09T21:32:09;99157.22;;;17.01;100.00
42859;BME280;28505;56.970;40.998;2023-07-09T21:37:37;99161.19;;;16.88;100.00
42859;BME280;28505;56.970;40.998;2023-07-09T21:43:02;99155.75;;;16.72;100.00
42859;BME280;28505;56.970;40.998;2023-07-09T21:48:26;99156.97;;;16.90;100.00
42859;BME280;28505;56.970;40.998;2023-07-09T21:53:49;99151.25;;;16.95;100.00
42859;BME280;28505;56.970;40.998;2023-07-09T21:59:15;99143.63;;;16.85;100.00
42859;BME280;28505;56.970;40.998;2023-07-09T22:04:37;99134.84;;;16.92;100.00
42859;BME280;28505;56.970;40.998;2023-07-09T22:10:00;99131.59;;;16.86;100.00
42859;BME280;28505;56.970;40.998;2023-07-09T22:15:26;99123.19;;;16.75;100.00
42859;BME280;28505;56.970;40.998;2023-07-09T22:20:49;99138.19;;;16.69;100.00
42859;BME280;28505;56.970;40.998;2023-07-09T22:26:11;99134.16;;;16.63;100.00
42859;BME280;28505;56.970;40.998;2023-07-09T22:31:33;99117.13;;;16.66;100.00
42859;BME280;28505;56.970;40.998;2023-07-09T22:36:58;99124.44;;;16.62;100.00
42859;BME280;28505;56.970;40.998;2023-07-09T22:42:20;99114.25;;;16.59;100.00
42859;BME280;28505;56.970;40.998;2023-07-09T22:47:43;99122.66;;;16.54;100.00
42859;BME280;28505;56.970;40.998;2023-07-09T22:53:12;99118.38;;;16.53;100.00
42859;BME280;28505;56.970;40.998;2023-07-09T22:58:35;99117.69;;;16.40;100.00
42859;BME280;28505;56.970;40.998;2023-07-09T23:03:57;99106.63;;;16.33;100.00
42859;BME280;28505;56.970;40.998;2023-07-09T23:09:19;99116.28;;;16.30;100.00
42859;BME280;28505;56.970;40.998;2023-07-09T23:14:42;99123.56;;;16.26;100.00
42859;BME280;28505;56.970;40.998;2023-07-09T23:20:12;99121.19;;;16.25;100.00
42859;BME280;28505;56.970;40.998;2023-07-09T23:25:35;99126.53;;;16.21;100.00
42859;BME280;28505;56.970;40.998;2023-07-09T23:30:58;99111.22;;;16.13;100.00
42859;BME280;28505;56.970;40.998;2023-07-09T23:36:22;99102.50;;;15.91;100.00
42859;BME280;28505;56.970;40.998;2023-07-09T23:41:47;99107.16;;;15.91;100.00
42859;BME280;28505;56.970;40.998;2023-07-09T23:47:12;99115.31;;;15.91;100.00
42859;BME280;28505;56.970;40.998;2023-07-09T23:52:36;99107.13;;;15.75;100.00
42859;BME280;28505;56.970;40.998;2023-07-09T23:57:59;99104.22;;;15.68;100.00
